Wetterdaten: Woche 27.12.04 - 02.01.05 (KW53)
Datum Zeit Temperatur Luftfeuchte Luftdruck Niederschlag Windrichtung Taupunkt Windchill Wind
27.12.2004 00:00 0,3 C 100 % 1006 hPa 0,0 l/m N 0,3 C 0,3 C 0,0 km/h (0 Bft)
27.12.2004 01:00 0,3 C 100 % 1006 hPa 0,0 l/m N 0,3 C 0,3 C 0,0 km/h (0 Bft)
27.12.2004 02:00 0,2 C 100 % 1007 hPa 0,0 l/m N 0,2 C 0,2 C 0,0 km/h (0 Bft)
27.12.2004 03:00 0,2 C 100 % 1007 hPa 0,0 l/m N 0,1 C 0,2 C 0,0 km/h (0 Bft)
27.12.2004 04:00 0,1 C 100 % 1008 hPa 0,0 l/m N 0,1 C 0,1 C 0,0 km/h (0 Bft)
27.12.2004 05:00 0,1 C 100 % 1008 hPa 0,0 l/m N 0,1 C 0,1 C 0,0 km/h (0 Bft)
27.12.2004 06:00 0,1 C 100 % 1008 hPa 0,0 l/m N 0,1 C 0,1 C 0,0 km/h (0 Bft)
27.12.2004 07:00 0,0 C 100 % 1009 hPa 0,0 l/m N 0,0 C 0,0 C 0,0 km/h (0 Bft)
27.12.2004 08:00 0,1 C 100 % 1010 hPa 0,0 l/m N 0,1 C 0,1 C 0,0 km/h (0 Bft)
27.12.2004 09:00 0,3 C 100 % 1011 hPa 0,0 l/m N 0,3 C 0,3 C 0,0 km/h (0 Bft)
27.12.2004 10:00 0,6 C 100 % 1012 hPa 1,0 l/m N 0,6 C 0,6 C 0,0 km/h (0 Bft)
27.12.2004 11:00 0,9 C 100 % 1012 hPa 0,0 l/m N 0,9 C 0,9 C 0,0 km/h (0 Bft)
27.12.2004 12:00 0,9 C 98 % 1012 hPa 0,0 l/m N 0,6 C 0,9 C 0,0 km/h (0 Bft)
27.12.2004 13:00 1,0 C 95 % 1013 hPa 0,0 l/m N 0,4 C 1,0 C 0,0 km/h (0 Bft)
27.12.2004 14:00 1,1 C 93 % 1014 hPa 1,0 l/m W-NW 0,2 C 0,2 C 5,6 km/h (1 Bft)
27.12.2004 15:00 0,9 C 91 % 1014 hPa 0,0 l/m W-NW -0,4 C -0,0 C 5,0 km/h (1 Bft)
27.12.2004 16:00 0,4 C 92 % 1015 hPa 0,0 l/m N -0,6 C 0,4 C 0,0 km/h (0 Bft)
27.12.2004 17:00 0,1 C 95 % 1015 hPa 0,0 l/m N -0,6 C 0,1 C 0,0 km/h (0 Bft)
27.12.2004 18:00 -0,1 C 97 % 1015 hPa 0,0 l/m N -0,5 C -0,1 C 0,0 km/h (0 Bft)
27.12.2004 19:00 -0,3 C 98 % 1016 hPa 0,0 l/m N -0,6 C -0,3 C 0,0 km/h (0 Bft)
27.12.2004 20:00 -0,5 C 97 % 1016 hPa 0,0 l/m N -0,9 C -0,5 C 0,0 km/h (0 Bft)
27.12.2004 21:00 -0,5 C 98 % 1016 hPa 0,0 l/m N -0,8 C -0,5 C 0,0 km/h (0 Bft)
27.12.2004 22:00 -0,6 C 98 % 1016 hPa 0,0 l/m N -0,9 C -0,6 C 0,0 km/h (0 Bft)
27.12.2004 23:00 -0,7 C 98 % 1016 hPa 0,0 l/m N -1,0 C -0,7 C 0,0 km/h (0 Bft)
28.12.2004 00:00 -0,9 C 99 % 1016 hPa 0,0 l/m N -1,0 C -0,9 C 0,0 km/h (0 Bft)
28.12.2004 01:00 -0,8 C 99 % 1015 hPa 0,0 l/m N -1,0 C -0,8 C 0,0 km/h (0 Bft)
28.12.2004 02:00 -0,8 C 99 % 1015 hPa 0,0 l/m N -0,9 C -0,8 C 0,0 km/h (0 Bft)
28.12.2004 03:00 -0,8 C 99 % 1015 hPa 0,0 l/m N -1,0 C -0,8 C 0,0 km/h (0 Bft)
28.12.2004 04:00 -0,9 C 99 % 1014 hPa 0,0 l/m N -1,0 C -0,9 C 0,0 km/h (0 Bft)
28.12.2004 05:00 -1,0 C 100 % 1014 hPa 0,0 l/m N -1,0 C -1,0 C 0,0 km/h (0 Bft)
28.12.2004 06:00 -0,9 C 100 % 1013 hPa 0,0 l/m N -1,0 C -0,9 C 0,0 km/h (0 Bft)
28.12.2004 07:00 -1,1 C 100 % 1012 hPa 0,0 l/m N -1,1 C -1,1 C 0,0 km/h (0 Bft)
28.12.2004 08:00 -1,1 C 100 % 1012 hPa 0,0 l/m N -1,1 C -1,1 C 0,0 km/h (0 Bft)
28.12.2004 09:00 -0,7 C 100 % 1011 hPa 0,0 l/m N -0,7 C -0,7 C 0,0 km/h (0 Bft)
28.12.2004 10:00 -0,2 C 97 % 1010 hPa 0,0 l/m N -0,6 C -0,2 C 0,0 km/h (0 Bft)
28.12.2004 11:00 0,2 C 89 % 1010 hPa 0,0 l/m SO -1,3 C -0,2 C 1,8 km/h (1 Bft)
28.12.2004 12:00 0,3 C 85 % 1008 hPa 0,0 l/m SO -1,9 C -4,5 C 13,6 km/h (3 Bft)
28.12.2004 13:00 0,5 C 85 % 1007 hPa 0,0 l/m SO -1,7 C -2,1 C 10,9 km/h (2 Bft)
28.12.2004 14:00 0,6 C 86 % 1006 hPa 1,0 l/m S-SO -1,5 C -0,4 C 7,9 km/h (2 Bft)
28.12.2004 15:00 0,4 C 88 % 1006 hPa 0,0 l/m SO -1,4 C 0,4 C 0,8 km/h (0 Bft)
28.12.2004 16:00 0,2 C 90 % 1006 hPa 0,0 l/m N -1,3 C 0,2 C 0,6 km/h (0 Bft)
28.12.2004 17:00 -0,1 C 96 % 1007 hPa 0,0 l/m N -0,7 C -0,1 C 0,0 km/h (0 Bft)
28.12.2004 18:00 -0,2 C 100 % 1008 hPa 0,0 l/m N -0,2 C -0,2 C 0,0 km/h (0 Bft)
28.12.2004 19:00 -0,1 C 100 % 1008 hPa 0,0 l/m N -0,1 C -0,1 C 0,0 km/h (0 Bft)
28.12.2004 20:00 -0,0 C 99 % 1010 hPa 0,0 l/m N -0,1 C -0,0 C 0,0 km/h (0 Bft)
28.12.2004 21:00 -0,2 C 96 % 1011 hPa 0,0 l/m N -0,7 C -0,2 C 0,0 km/h (0 Bft)
28.12.2004 22:00 -0,5 C 96 % 1012 hPa 0,0 l/m N -1,1 C -0,5 C 0,0 km/h (0 Bft)
28.12.2004 23:00 -0,6 C 97 % 1014 hPa 0,0 l/m N -1,1 C -0,6 C 0,0 km/h (0 Bft)
29.12.2004 00:00 -0,4 C 97 % 1014 hPa 0,0 l/m N -0,8 C -0,4 C 0,0 km/h (0 Bft)
29.12.2004 01:00 -0,3 C 94 % 1015 hPa 0,0 l/m N -1,0 C -0,3 C 0,0 km/h (0 Bft)
29.12.2004 02:00 -0,5 C 93 % 1017 hPa 0,0 l/m N -1,5 C -0,5 C 0,0 km/h (0 Bft)
29.12.2004 03:00 -0,6 C 92 % 1018 hPa 0,0 l/m N -1,8 C -0,6 C 0,0 km/h (0 Bft)
29.12.2004 04:00 -0,8 C 90 % 1019 hPa 0,0 l/m N -2,3 C -0,8 C 0,0 km/h (0 Bft)
29.12.2004 05:00 -0,8 C 90 % 1019 hPa 0,0 l/m N -2,3 C -0,8 C 0,0 km/h (0 Bft)
29.12.2004 06:00 -0,7 C 89 % 1020 hPa 0,0 l/m N -2,2 C -0,7 C 0,0 km/h (0 Bft)
29.12.2004 07:00 -0,8 C 90 % 1020 hPa 0,0 l/m N -2,3 C -0,8 C 0,0 km/h (0 Bft)
29.12.2004 08:00 -1,2 C 93 % 1021 hPa 0,0 l/m N -2,1 C -1,2 C 0,0 km/h (0 Bft)
29.12.2004 09:00 -0,6 C 92 % 1022 hPa 0,0 l/m N -1,7 C -0,6 C 0,0 km/h (0 Bft)
29.12.2004 10:00 -0,3 C 90 % 1023 hPa 0,0 l/m SO -1,7 C -0,3 C 1,0 km/h (0 Bft)
29.12.2004 11:00 0,1 C 89 % 1023 hPa 0,0 l/m SO -1,6 C -2,5 C 10,8 km/h (2 Bft)
29.12.2004 12:00 0,4 C 89 % 1024 hPa 0,0 l/m SO -1,2 C -0,2 C 7,2 km/h (2 Bft)
29.12.2004 13:00 0,3 C 86 % 1024 hPa 0,0 l/m S -1,8 C -0,1 C 1,6 km/h (1 Bft)
29.12.2004 14:00 0,3 C 90 % 1024 hPa 0,0 l/m N -1,1 C 0,3 C 0,0 km/h (0 Bft)
29.12.2004 15:00 0,4 C 89 % 1025 hPa 0,0 l/m N -1,2 C 0,4 C 0,0 km/h (0 Bft)
29.12.2004 16:00 0,2 C 92 % 1026 hPa 0,0 l/m N -1,0 C 0,2 C 0,0 km/h (0 Bft)
29.12.2004 17:00 -0,3 C 96 % 1026 hPa 0,0 l/m N -0,8 C -0,3 C 0,0 km/h (0 Bft)
29.12.2004 18:00 -0,6 C 98 % 1027 hPa 0,0 l/m N -0,8 C -0,6 C 0,0 km/h (0 Bft)
29.12.2004 19:00 -0,7 C 98 % 1028 hPa 0,0 l/m N -0,9 C -0,7 C 0,0 km/h (0 Bft)
29.12.2004 20:00 -1,2 C 99 % 1029 hPa 0,0 l/m N -1,3 C -1,2 C 0,0 km/h (0 Bft)
29.12.2004 21:00 -1,5 C 100 % 1030 hPa 0,0 l/m N -1,5 C -1,5 C 0,0 km/h (0 Bft)
29.12.2004 22:00 -2,4 C 100 % 1030 hPa 0,0 l/m N -2,4 C -2,4 C 0,0 km/h (0 Bft)
29.12.2004 23:00 -2,9 C 100 % 1031 hPa 0,0 l/m N -2,9 C -2,9 C 0,0 km/h (0 Bft)
30.12.2004 00:00 -3,2 C 100 % 1031 hPa 0,0 l/m N -3,2 C -3,2 C 0,0 km/h (0 Bft)
30.12.2004 13:00 -1,0 C 87 % 1032 hPa 0,0 l/m N -2,9 C -1,0 C 0,0 km/h (0 Bft)
30.12.2004 14:00 -1,2 C 77 % 1032 hPa 0,0 l/m N -4,6 C -1,2 C 0,0 km/h (0 Bft)
30.12.2004 15:00 -2,2 C 85 % 1032 hPa 0,0 l/m N -4,5 C -2,2 C 0,0 km/h (0 Bft)
30.12.2004 16:00 -2,6 C 91 % 1032 hPa 0,0 l/m N -3,9 C -2,6 C 0,0 km/h (0 Bft)
30.12.2004 17:00 -3,0 C 94 % 1032 hPa 0,0 l/m N -3,9 C -3,0 C 0,0 km/h (0 Bft)
30.12.2004 18:00 -3,0 C 95 % 1032 hPa 0,0 l/m N -3,6 C -3,0 C 0,0 km/h (0 Bft)
30.12.2004 19:00 -3,1 C 96 % 1032 hPa 0,0 l/m N -3,6 C -3,1 C 0,0 km/h (0 Bft)
30.12.2004 20:00 -3,4 C 96 % 1031 hPa 0,0 l/m N -3,9 C -3,4 C 0,0 km/h (0 Bft)
30.12.2004 21:00 -3,9 C 96 % 1031 hPa 0,0 l/m N -4,4 C -3,9 C 0,0 km/h (0 Bft)
30.12.2004 22:00 -4,3 C 98 % 1031 hPa 0,0 l/m N -4,5 C -4,3 C 0,0 km/h (0 Bft)
30.12.2004 23:00 -4,8 C 99 % 1031 hPa 0,0 l/m N -5,0 C -4,8 C 0,0 km/h (0 Bft)
31.12.2004 00:00 -4,9 C 100 % 1030 hPa 0,0 l/m N -4,9 C -4,9 C 0,0 km/h (0 Bft)
31.12.2004 01:00 -4,5 C 100 % 1030 hPa 0,0 l/m N -4,5 C -4,5 C 0,0 km/h (0 Bft)
31.12.2004 02:00 -3,7 C 100 % 1029 hPa 0,0 l/m N -3,7 C -3,7 C 0,0 km/h (0 Bft)
31.12.2004 03:00 -3,7 C 100 % 1029 hPa 0,0 l/m N -3,7 C -3,7 C 0,0 km/h (0 Bft)
31.12.2004 04:00 -3,6 C 100 % 1029 hPa 0,0 l/m N -3,6 C -3,6 C 0,0 km/h (0 Bft)
31.12.2004 05:00 -3,5 C 100 % 1029 hPa 0,0 l/m N -3,5 C -3,5 C 0,0 km/h (0 Bft)
31.12.2004 06:00 -3,7 C 100 % 1029 hPa 0,0 l/m N -3,7 C -3,7 C 0,0 km/h (0 Bft)
31.12.2004 07:00 -3,6 C 100 % 1029 hPa 0,0 l/m N -3,6 C -3,6 C 0,0 km/h (0 Bft)
31.12.2004 08:00 -3,4 C 100 % 1029 hPa 0,0 l/m N -3,4 C -3,4 C 0,0 km/h (0 Bft)
31.12.2004 09:00 -3,0 C 100 % 1029 hPa 0,0 l/m N -3,0 C -3,0 C 0,0 km/h (0 Bft)
31.12.2004 10:00 -1,8 C 100 % 1029 hPa 0,0 l/m N -1,8 C -1,8 C 0,0 km/h (0 Bft)
31.12.2004 11:00 -1,2 C 98 % 1029 hPa 0,0 l/m N -1,4 C -1,2 C 0,0 km/h (0 Bft)
31.12.2004 12:00 -0,7 C 90 % 1028 hPa 0,0 l/m N -2,1 C -0,7 C 0,0 km/h (0 Bft)
31.12.2004 13:00 -0,3 C 88 % 1028 hPa 0,0 l/m N -2,1 C -0,3 C 0,0 km/h (0 Bft)
31.12.2004 14:00 0,0 C 88 % 1027 hPa 0,0 l/m N -1,7 C 0,0 C 0,0 km/h (0 Bft)
31.12.2004 15:00 -0,0 C 89 % 1027 hPa 0,0 l/m N -1,6 C -0,0 C 0,0 km/h (0 Bft)
31.12.2004 16:00 -0,3 C 91 % 1027 hPa 0,0 l/m N -1,6 C -0,3 C 0,0 km/h (0 Bft)
31.12.2004 17:00 -0,4 C 92 % 1028 hPa 0,0 l/m N -1,5 C -0,4 C 0,0 km/h (0 Bft)
31.12.2004 18:00 -0,5 C 93 % 1028 hPa 0,0 l/m N -1,5 C -0,5 C 0,0 km/h (0 Bft)
31.12.2004 19:00 -0,5 C 94 % 1027 hPa 0,0 l/m N -1,3 C -0,5 C 0,0 km/h (0 Bft)
31.12.2004 20:00 -0,3 C 95 % 1027 hPa 0,0 l/m N -1,0 C -0,3 C 0,0 km/h (0 Bft)
31.12.2004 21:00 -0,0 C 98 % 1027 hPa 0,0 l/m N -0,3 C -0,0 C 0,0 km/h (0 Bft)
31.12.2004 22:00 0,2 C 100 % 1027 hPa 0,0 l/m N 0,2 C 0,2 C 0,0 km/h (0 Bft)
31.12.2004 23:00 0,5 C 100 % 1027 hPa 0,0 l/m O-SO 0,5 C -0,8 C 5,2 km/h (1 Bft)
01.01.2005 00:00 0,6 C 100 % 1027 hPa 0,0 l/m O 0,6 C 0,5 C 11,1 km/h (2 Bft)
Min-Datum _ 31.12.04 30.12.04 27.12.04 - - 30.12.04 28.12.04 27.12.04
_ Min-Zeit 00:03 14:07 01:00 - - 15:03 12:14 00:00
Minimum _ -5,0 C 76 % 1006 hPa - - -5,1 C -7,3 C 0,0 km/h (0 Bft)
Max-Datum _ 27.12.04 27.12.04 30.12.04 27.12.04 - 27.12.04 27.12.04 28.12.04
_ Max-Zeit 14:46 00:00 13:07 10:28 - 11:17 14:46 12:14
Maximum _ 1,2 C 100 % 1032 hPa 1,0 l/m - 0,9 C 1,2 C 19,7 km/h
SO (3 Bft)
Durchschnitt _ -0,9 C 96 % 1020 hPa #3,0 l/m SO -1,5 C -1,0 C 0,8 km/h (0 Bft)

Durchschnitt Minimum Temp.-1,1 C
Durchschnitt Maximum Temp.-0,7 C